Time;durP1;ratioP1;P1;durP2;ratioP2;P2;SDS_P1;SDS_P2;PMS_P1;PMS_P2;Temp;Humidity;BMP_temperature;BMP_pressure;BME280_temperature;BME280_humidity;BME280_pressure;Samples;Min_cycle;Max_cycle;Signal;HPM_P1;HPM_P2
2023/08/07 00:00:56;;;;;;;6.80;3.60;;;;;;;20.71;75.64;99579.63;107629;1254;111282;-61
2023/08/07 00:03:33;;;;;;;6.50;3.70;;;;;;;20.65;75.79;99585.86;107600;1255;110590;-62
2023/08/07 00:06:01;;;;;;;7.30;3.70;;;;;;;20.59;76.55;99584.15;107581;1254;109859;-60
2023/08/07 00:08:31;;;;;;;6.90;4.10;;;;;;;20.55;76.39;99582.06;107610;1254;97838;-61
2023/08/07 00:11:09;;;;;;;7.10;4.30;;;;;;;20.52;77.36;99582.59;107613;1251;99623;-60
2023/08/07 00:13:38;;;;;;;4.10;3.60;;;;;;;20.46;77.35;99584.35;107575;1254;112115;-60
2023/08/07 00:16:07;;;;;;;5.40;3.70;;;;;;;20.43;77.55;99585.07;107638;1254;109363;-60
2023/08/07 00:18:35;;;;;;;8.40;3.90;;;;;;;20.42;77.60;99584.48;107626;1254;107850;-62
2023/08/07 00:21:03;;;;;;;6.20;3.80;;;;;;;20.43;77.28;99587.09;107607;1254;97809;-64
2023/08/07 00:23:32;;;;;;;6.50;3.50;;;;;;;20.47;77.13;99584.47;107630;1254;97707;-61
2023/08/07 00:26:04;;;;;;;4.30;3.70;;;;;;;20.48;76.96;99583.53;107534;1250;111295;-64
2023/08/07 00:28:32;;;;;;;5.50;3.30;;;;;;;20.51;76.63;99588.94;107504;1253;109610;-61
2023/08/07 00:31:00;;;;;;;6.80;4.10;;;;;;;20.53;76.52;99590.05;107612;1254;107851;-61
2023/08/07 00:33:29;;;;;;;6.90;3.50;;;;;;;20.57;76.77;99587.49;107574;1251;97818;-62
2023/08/07 00:35:58;;;;;;;10.40;3.60;;;;;;;20.58;76.63;99593.55;107667;1251;97704;-65
2023/08/07 00:38:26;;;;;;;6.60;4.20;;;;;;;20.57;76.65;99595.02;107521;1254;112137;-65
2023/08/07 00:40:55;;;;;;;5.50;3.50;;;;;;;20.54;76.64;99595.97;107562;1254;109198;-62
2023/08/07 00:43:24;;;;;;;4.30;3.60;;;;;;;20.54;76.54;99593.73;107637;1251;106846;-60
2023/08/07 00:45:52;;;;;;;5.50;3.60;;;;;;;20.56;76.66;99592.85;107554;1251;97749;-61
2023/08/07 00:48:21;;;;;;;6.40;3.60;;;;;;;20.58;76.43;99592.36;107594;1257;98004;-61
2023/08/07 00:50:54;;;;;;;6.90;3.50;;;;;;;20.67;76.30;99592.27;107445;1254;111871;-62
2023/08/07 00:53:26;;;;;;;6.20;3.30;;;;;;;20.77;76.04;99578.58;107616;1254;109207;-67
2023/08/07 00:55:55;;;;;;;5.90;3.70;;;;;;;20.84;75.62;99582.92;107664;1256;106885;-62
2023/08/07 00:58:30;;;;;;;6.70;4.20;;;;;;;20.89;75.65;99580.96;107580;1254;97707;-61
2023/08/07 01:00:59;;;;;;;5.90;3.10;;;;;;;20.91;75.20;99578.62;107602;1254;97832;-60
2023/08/07 01:03:31;;;;;;;6.00;3.50;;;;;;;20.92;75.20;99579.31;107531;1251;111891;-61
2023/08/07 01:05:59;;;;;;;3.60;3.30;;;;;;;20.94;74.96;99581.14;107639;1251;109214;-60
2023/08/07 01:08:28;;;;;;;6.70;3.60;;;;;;;20.92;74.97;99586.63;107560;1254;109123;-61
2023/08/07 01:11:23;;;;;;;5.50;3.30;;;;;;;20.85;75.20;99590.77;107639;1253;97819;-61
2023/08/07 01:14:02;;;;;;;9.60;3.00;;;;;;;20.80;74.88;99588.34;107610;1250;97825;-61
2023/08/07 01:16:47;;;;;;;6.90;2.90;;;;;;;20.78;75.39;99590.80;107526;1251;114043;-61
2023/08/07 01:19:27;;;;;;;5.40;3.40;;;;;;;20.71;75.21;99593.77;107650;1251;109680;-60
2023/08/07 01:22:07;;;;;;;4.30;3.30;;;;;;;20.68;75.04;99584.94;107519;1254;109271;-61
2023/08/07 01:24:37;;;;;;;6.40;3.80;;;;;;;20.69;75.11;99582.70;107531;1254;97819;-61
2023/08/07 01:27:29;;;;;;;6.40;3.30;;;;;;;20.72;75.02;99577.15;107611;1251;97761;-65
2023/08/07 01:30:04;;;;;;;4.80;3.30;;;;;;;20.72;74.70;99576.89;107441;1251;111215;-61
2023/08/07 01:32:54;;;;;;;5.10;3.30;;;;;;;20.74;74.51;99584.42;107482;1251;109511;-61
2023/08/07 01:35:29;;;;;;;5.30;3.30;;;;;;;20.77;74.49;99591.15;107629;1254;108304;-60
2023/08/07 01:37:59;;;;;;;5.00;3.50;;;;;;;20.77;74.40;99600.10;107566;1254;97839;-61
2023/08/07 01:40:29;;;;;;;5.30;3.00;;;;;;;20.79;74.39;99599.35;107480;1251;98356;-62
2023/08/07 01:42:58;;;;;;;4.40;3.10;;;;;;;20.82;74.31;99595.61;107705;1250;112806;-61
2023/08/07 01:45:28;;;;;;;7.30;3.20;;;;;;;20.85;74.01;99592.45;107642;1253;109606;-60
2023/08/07 01:47:57;;;;;;;4.80;3.10;;;;;;;20.87;73.87;99592.39;107654;1254;107134;-62
2023/08/07 01:50:26;;;;;;;6.30;3.00;;;;;;;20.87;73.72;99598.36;107478;1251;97867;-62
2023/08/07 01:52:54;;;;;;;6.70;3.20;;;;;;;20.86;73.80;99600.13;107556;1251;97701;-63
2023/08/07 01:55:28;;;;;;;4.10;3.30;;;;;;;20.85;74.16;99599.02;107622;1250;112726;-62
2023/08/07 01:57:58;;;;;;;5.80;3.10;;;;;;;20.79;74.55;99609.07;107668;1251;110257;-61
2023/08/07 02:00:26;;;;;;;7.20;3.70;;;;;;;20.68;74.76;99609.52;107537;1251;108090;-60
2023/08/07 02:02:55;;;;;;;5.20;3.10;;;;;;;20.62;74.89;99605.38;107502;1251;98043;-61
2023/08/07 02:05:23;;;;;;;4.20;3.20;;;;;;;20.59;74.96;99604.36;107578;1254;97815;-61
2023/08/07 02:07:52;;;;;;;8.50;3.00;;;;;;;20.58;75.03;99601.55;107427;1254;111845;-61
2023/08/07 02:10:21;;;;;;;6.40;3.40;;;;;;;20.55;75.39;99604.20;107554;1256;109892;-61
2023/08/07 02:12:52;;;;;;;6.10;3.40;;;;;;;20.45;75.62;99601.64;107607;1254;109514;-63
2023/08/07 02:15:21;;;;;;;9.10;3.70;;;;;;;20.39;76.08;99604.57;107610;1252;97860;-62
2023/08/07 02:17:51;;;;;;;7.10;3.30;;;;;;;20.32;76.41;99608.27;107627;1253;97815;-61
2023/08/07 02:20:20;;;;;;;7.30;3.80;;;;;;;20.28;76.58;99608.37;107563;1256;111718;-61
2023/08/07 02:22:58;;;;;;;5.40;4.00;;;;;;;20.24;76.63;99610.20;107614;1256;109254;-60
2023/08/07 02:25:31;;;;;;;5.30;3.20;;;;;;;20.19;77.59;99604.77;107598;1251;108801;-62
2023/08/07 02:28:01;;;;;;;7.80;3.50;;;;;;;20.13;77.78;99607.33;107585;1251;97800;-59
2023/08/07 02:30:31;;;;;;;23.90;3.70;;;;;;;20.10;77.96;99615.64;107548;1251;98507;-61
2023/08/07 02:33:02;;;;;;;5.00;3.50;;;;;;;20.05;77.75;99624.88;107569;1251;110815;-61
2023/08/07 02:35:33;;;;;;;5.50;3.60;;;;;;;20.02;78.25;99634.66;107588;1251;110423;-60
2023/08/07 02:38:02;;;;;;;7.20;3.50;;;;;;;19.99;78.28;99636.50;107520;1251;108360;-60
2023/08/07 02:40:36;;;;;;;6.30;3.90;;;;;;;20.00;78.66;99646.56;107509;1254;97889;-59
2023/08/07 02:43:04;;;;;;;9.70;3.60;;;;;;;20.02;78.31;99648.48;107585;1254;97834;-60
2023/08/07 02:45:35;;;;;;;8.70;3.70;;;;;;;20.04;78.72;99648.17;107576;1251;111181;-61
2023/08/07 02:48:03;;;;;;;6.10;4.00;;;;;;;20.01;78.76;99648.94;107573;1251;110443;-60
2023/08/07 02:50:32;;;;;;;4.60;3.30;;;;;;;20.02;78.34;99646.60;107659;1251;107812;-62
2023/08/07 02:53:02;;;;;;;7.20;3.60;;;;;;;20.09;78.37;99653.11;107615;1251;97909;-59
2023/08/07 02:55:30;;;;;;;4.70;3.30;;;;;;;20.11;78.56;99657.34;107552;1251;98321;-60
2023/08/07 02:57:59;;;;;;;6.20;3.40;;;;;;;20.03;79.07;99664.84;107599;1254;111143;-60
2023/08/07 03:00:27;;;;;;;4.80;3.20;;;;;;;19.94;78.85;99664.65;107545;1251;109390;-60
2023/08/07 03:02:55;;;;;;;6.00;3.90;;;;;;;19.92;78.92;99663.14;107597;1254;108101;-60
2023/08/07 03:05:24;;;;;;;5.10;3.70;;;;;;;19.93;79.13;99663.17;107523;1251;97826;-60
2023/08/07 03:07:52;;;;;;;15.30;4.00;;;;;;;19.95;78.87;99665.59;107427;1254;97864;-59
2023/08/07 03:10:21;;;;;;;6.10;3.20;;;;;;;20.00;79.11;99676.44;107582;1253;111237;-60
2023/08/07 03:12:52;;;;;;;6.20;4.60;;;;;;;20.04;79.01;99678.20;107599;1254;109356;-60
2023/08/07 03:15:20;;;;;;;6.60;3.40;;;;;;;20.09;78.80;99677.63;107509;1250;107488;-61
2023/08/07 03:17:48;;;;;;;5.70;3.70;;;;;;;20.14;78.47;99681.02;107564;1251;97799;-60
2023/08/07 03:20:17;;;;;;;6.40;3.80;;;;;;;20.20;78.37;99688.61;107592;1256;98385;-60
2023/08/07 03:22:45;;;;;;;8.60;5.20;;;;;;;20.22;78.31;99695.83;107580;1253;112194;-59
2023/08/07 03:25:14;;;;;;;7.90;4.40;;;;;;;20.23;78.18;99701.76;107552;1251;109743;-59
2023/08/07 03:27:43;;;;;;;12.40;5.20;;;;;;;20.25;77.98;99703.73;107530;1254;107867;-60
2023/08/07 03:30:11;;;;;;;7.60;5.00;;;;;;;20.27;78.04;99700.72;107597;1251;97966;-59
2023/08/07 03:32:41;;;;;;;4.70;3.80;;;;;;;20.31;77.82;99704.79;107499;1251;97880;-60
2023/08/07 03:35:14;;;;;;;4.20;3.40;;;;;;;20.40;78.21;99707.30;107494;1251;111696;-64
2023/08/07 03:37:43;;;;;;;7.00;3.70;;;;;;;20.41;78.32;99704.48;107618;1251;109540;-59
2023/08/07 03:40:11;;;;;;;9.70;3.80;;;;;;;20.37;78.18;99703.00;107522;1251;108847;-60
2023/08/07 03:42:40;;;;;;;9.50;3.70;;;;;;;20.38;78.30;99706.69;107619;1251;98384;-60
2023/08/07 03:45:09;;;;;;;5.30;3.30;;;;;;;20.44;78.44;99708.77;107625;1254;97697;-60
2023/08/07 03:47:39;;;;;;;6.80;4.00;;;;;;;20.45;77.97;99708.41;107624;1251;111353;-59
2023/08/07 03:50:09;;;;;;;6.00;3.50;;;;;;;20.42;78.43;99709.66;107570;1251;109984;-59
2023/08/07 03:52:38;;;;;;;7.00;3.80;;;;;;;20.34;78.64;99711.66;107670;1251;107449;-60
2023/08/07 03:55:09;;;;;;;7.20;4.00;;;;;;;20.29;78.88;99713.64;107477;1251;97704;-60
2023/08/07 03:57:38;;;;;;;10.60;3.60;;;;;;;20.33;79.03;99717.95;107625;1251;97865;-61
2023/08/07 04:00:08;;;;;;;8.50;4.10;;;;;;;20.35;78.79;99720.25;107476;1251;111404;-59
2023/08/07 04:02:42;;;;;;;14.10;3.70;;;;;;;20.39;78.77;99724.85;107487;1254;110204;-59
2023/08/07 04:05:11;;;;;;;5.00;3.80;;;;;;;20.43;78.80;99727.40;107457;1251;107147;-62
2023/08/07 04:07:39;;;;;;;5.30;3.40;;;;;;;20.44;78.67;99735.27;107613;1251;97832;-61
2023/08/07 04:10:09;;;;;;;4.80;3.70;;;;;;;20.48;78.61;99733.81;107500;1254;97707;-61
2023/08/07 04:12:37;;;;;;;8.60;4.00;;;;;;;20.52;78.39;99732.50;107657;1254;112280;-60
2023/08/07 04:15:06;;;;;;;11.30;3.30;;;;;;;20.59;78.12;99733.70;107526;1256;109873;-62
2023/08/07 04:17:36;;;;;;;9.10;3.60;;;;;;;20.64;77.89;99738.39;107609;1251;107781;-60
2023/08/07 04:20:08;;;;;;;8.30;3.80;;;;;;;20.67;77.75;99742.27;107453;1251;97829;-61
2023/08/07 04:22:39;;;;;;;5.90;3.60;;;;;;;20.71;77.61;99747.42;107534;1251;97864;-60
2023/08/07 04:25:08;;;;;;;7.40;4.20;;;;;;;20.74;77.86;99753.19;107536;1251;111231;-58
2023/08/07 04:27:38;;;;;;;9.30;3.90;;;;;;;20.69;77.62;99752.58;107649;1251;108578;-59
2023/08/07 04:30:07;;;;;;;9.00;4.50;;;;;;;20.67;77.77;99754.31;107501;1251;107479;-60
2023/08/07 04:32:36;;;;;;;6.30;4.10;;;;;;;20.67;77.90;99759.11;107642;1251;97963;-60
2023/08/07 04:35:05;;;;;;;11.00;4.10;;;;;;;20.69;77.68;99759.18;107635;1251;97893;-60
2023/08/07 04:37:33;;;;;;;11.80;4.20;;;;;;;20.74;77.74;99758.55;107581;1251;111774;-61
2023/08/07 04:40:01;;;;;;;7.40;4.90;;;;;;;20.81;77.73;99761.52;107510;1254;109760;-59
2023/08/07 04:42:30;;;;;;;5.90;4.10;;;;;;;20.86;77.49;99764.64;107650;1255;107216;-60
2023/08/07 04:44:58;;;;;;;9.00;4.20;;;;;;;20.91;77.51;99764.20;107574;1251;97829;-61
2023/08/07 04:47:28;;;;;;;10.80;4.00;;;;;;;20.95;77.31;99764.62;107467;1251;97659;-61
2023/08/07 04:49:57;;;;;;;6.40;4.00;;;;;;;20.99;76.91;99768.48;107514;1251;111498;-61
2023/08/07 04:52:25;;;;;;;9.00;4.00;;;;;;;21.00;76.91;99765.41;107504;1251;110293;-61
2023/08/07 04:54:54;;;;;;;6.60;4.20;;;;;;;21.02;76.83;99763.98;107617;1251;108331;-61
2023/08/07 04:57:22;;;;;;;8.70;4.90;;;;;;;21.04;76.75;99767.20;107494;1251;97885;-61
2023/08/07 04:59:52;;;;;;;5.80;3.90;;;;;;;21.01;76.43;99777.08;107524;1254;97701;-60
2023/08/07 05:02:20;;;;;;;5.50;4.00;;;;;;;20.99;76.31;99775.92;107640;1251;111286;-59
2023/08/07 05:04:48;;;;;;;4.70;3.10;;;;;;;20.99;76.56;99774.79;107630;1254;108468;-59
2023/08/07 05:07:17;;;;;;;5.50;3.30;;;;;;;21.03;76.50;99772.51;107626;1251;107876;-60
2023/08/07 05:09:45;;;;;;;11.00;3.60;;;;;;;21.10;75.81;99774.11;107577;1254;97815;-60
2023/08/07 05:12:14;;;;;;;5.50;3.20;;;;;;;21.08;74.64;99775.86;107635;1251;98389;-60
2023/08/07 05:14:42;;;;;;;6.90;2.90;;;;;;;21.07;74.52;99778.69;107599;1253;111532;-59
2023/08/07 05:17:12;;;;;;;7.40;3.00;;;;;;;21.07;74.28;99775.88;107588;1251;110328;-60
2023/08/07 05:19:41;;;;;;;8.10;3.10;;;;;;;21.03;73.47;99781.17;107648;1254;107508;-59
2023/08/07 05:22:09;;;;;;;3.00;2.40;;;;;;;21.02;73.64;99784.11;107509;1251;97737;-60
2023/08/07 05:24:40;;;;;;;8.60;2.40;;;;;;;21.03;73.32;99785.51;107627;1251;97704;-61
2023/08/07 05:27:08;;;;;;;5.10;2.40;;;;;;;21.02;72.70;99788.00;107533;1251;111185;-60
2023/08/07 05:29:43;;;;;;;11.40;2.30;;;;;;;21.01;72.38;99790.15;107536;1254;109484;-62
2023/08/07 05:32:14;;;;;;;6.20;2.30;;;;;;;21.00;71.90;99790.63;107527;1251;107770;-58
2023/08/07 05:34:43;;;;;;;3.70;2.50;;;;;;;21.03;72.10;99791.48;107527;1250;97806;-60
2023/08/07 05:37:14;;;;;;;5.90;2.20;;;;;;;20.99;71.74;99790.90;107633;1251;98888;-62
2023/08/07 05:39:43;;;;;;;6.30;1.60;;;;;;;20.92;71.66;99796.02;107515;1251;111873;-61
2023/08/07 05:42:14;;;;;;;13.70;2.10;;;;;;;20.88;71.62;99798.27;107479;1251;110220;-60
2023/08/07 05:44:43;;;;;;;9.20;2.30;;;;;;;20.88;71.99;99798.80;107494;1252;107966;-58
2023/08/07 05:47:11;;;;;;;7.60;1.80;;;;;;;20.86;71.77;99797.77;107638;1252;97835;-60
2023/08/07 05:49:40;;;;;;;2.30;1.80;;;;;;;20.81;71.47;99791.70;107548;1253;97928;-62
2023/08/07 05:52:09;;;;;;;2.50;1.70;;;;;;;20.82;71.70;99798.13;107667;1251;111379;-60
2023/08/07 05:54:37;;;;;;;3.70;1.50;;;;;;;20.79;71.03;99793.78;107546;1251;109955;-59
2023/08/07 05:57:06;;;;;;;5.30;1.70;;;;;;;20.77;71.09;99794.30;107576;1256;107812;-60
2023/08/07 05:59:35;;;;;;;2.50;1.70;;;;;;;20.72;71.55;99796.95;107635;1253;97857;-60
2023/08/07 06:02:04;;;;;;;5.50;1.80;;;;;;;20.62;71.64;99799.52;107588;1254;97723;-59
2023/08/07 06:04:33;;;;;;;6.80;1.90;;;;;;;20.53;72.07;99807.29;107534;1251;111634;-59
2023/08/07 06:07:01;;;;;;;6.30;2.00;;;;;;;20.48;72.58;99814.63;107512;1251;111296;-61
2023/08/07 06:09:29;;;;;;;4.70;1.90;;;;;;;20.50;72.79;99818.10;107504;1251;108629;-60
2023/08/07 06:11:58;;;;;;;7.20;2.30;;;;;;;20.51;73.33;99817.42;107556;1251;97716;-59
2023/08/07 06:14:26;;;;;;;2.60;1.60;;;;;;;20.56;73.78;99823.20;107602;1251;97711;-59
2023/08/07 06:16:57;;;;;;;10.70;1.70;;;;;;;20.62;73.34;99822.27;107589;1254;112327;-59
2023/08/07 06:19:27;;;;;;;4.50;1.40;;;;;;;20.63;72.52;99826.97;107607;1251;109214;-64
2023/08/07 06:22:00;;;;;;;4.10;1.50;;;;;;;20.69;72.25;99830.74;107575;1254;108253;-61
2023/08/07 06:24:29;;;;;;;4.70;1.30;;;;;;;20.75;71.69;99840.53;107540;1254;98336;-59
2023/08/07 06:26:57;;;;;;;5.20;1.40;;;;;;;20.84;71.52;99842.73;107606;1254;97835;-60
2023/08/07 06:29:25;;;;;;;4.40;1.40;;;;;;;20.85;71.32;99845.23;107550;1251;111729;-61
2023/08/07 06:31:54;;;;;;;4.30;1.20;;;;;;;20.90;71.32;99843.70;107578;1252;109561;-59
2023/08/07 06:34:23;;;;;;;1.60;1.20;;;;;;;21.00;70.27;99842.41;107565;1253;107439;-62
2023/08/07 06:36:52;;;;;;;1.30;0.60;;;;;;;21.05;69.65;99842.61;107581;1251;97890;-60
2023/08/07 06:39:20;;;;;;;1.00;0.70;;;;;;;21.07;68.40;99843.81;107600;1251;97853;-59
2023/08/07 06:41:49;;;;;;;1.00;0.70;;;;;;;21.02;66.36;99846.98;107638;1251;112635;-62
2023/08/07 06:44:21;;;;;;;2.80;0.60;;;;;;;21.07;66.13;99855.45;107648;1250;109748;-62
2023/08/07 06:46:54;;;;;;;2.80;0.80;;;;;;;21.16;65.46;99847.27;107544;1251;108698;-62
2023/08/07 06:49:23;;;;;;;3.90;0.80;;;;;;;21.21;65.27;99849.06;107565;1251;97834;-60
2023/08/07 06:52:03;;;;;;;2.60;0.30;;;;;;;21.21;62.60;99863.34;107593;1254;98702;-60
2023/08/07 06:54:41;;;;;;;3.80;0.50;;;;;;;21.20;62.58;99872.08;107423;1253;111858;-61
2023/08/07 06:57:10;;;;;;;4.70;0.50;;;;;;;21.32;62.35;99875.11;107514;1254;110795;-59
2023/08/07 06:59:39;;;;;;;0.60;0.30;;;;;;;21.38;61.90;99871.83;107583;1255;107252;-60
2023/08/07 07:02:09;;;;;;;1.30;0.30;;;;;;;21.46;61.20;99871.44;107578;1251;97918;-62
2023/08/07 07:04:41;;;;;;;1.20;0.40;;;;;;;21.43;58.99;99877.00;107587;1251;97818;-60
2023/08/07 07:07:10;;;;;;;3.50;0.40;;;;;;;21.38;58.77;99884.08;107621;1251;112486;-61
2023/08/07 07:09:41;;;;;;;3.10;0.30;;;;;;;21.43;58.83;99891.35;107615;1250;109784;-61
2023/08/07 07:12:09;;;;;;;12.90;0.80;;;;;;;21.56;58.23;99892.66;107558;1251;108071;-61
2023/08/07 07:14:38;;;;;;;1.10;0.40;;;;;;;21.66;57.38;99897.98;107600;1251;97770;-61
2023/08/07 07:17:06;;;;;;;4.00;0.60;;;;;;;21.73;57.33;99903.70;107638;1251;98327;-59
2023/08/07 07:19:34;;;;;;;5.10;0.60;;;;;;;21.86;57.23;99906.84;107639;1251;112180;-59
2023/08/07 07:22:03;;;;;;;2.00;0.30;;;;;;;21.93;56.70;99907.17;107598;1251;109901;-59
2023/08/07 07:24:31;;;;;;;5.00;0.60;;;;;;;22.00;56.73;99909.95;107590;1251;107580;-61
2023/08/07 07:26:59;;;;;;;1.20;0.40;;;;;;;22.06;56.65;99907.37;107573;1253;97800;-59
2023/08/07 07:29:28;;;;;;;1.20;0.40;;;;;;;22.22;56.64;99907.45;107582;1256;98340;-60
2023/08/07 07:31:56;;;;;;;2.50;0.30;;;;;;;22.34;55.25;99912.58;107682;1251;111895;-59
2023/08/07 07:34:25;;;;;;;4.80;0.50;;;;;;;22.30;53.75;99918.23;107642;1251;109326;-59
2023/08/07 07:36:54;;;;;;;3.00;0.50;;;;;;;22.31;54.72;99921.48;107583;1251;109107;-60
2023/08/07 07:39:22;;;;;;;2.30;0.30;;;;;;;22.25;53.74;99931.52;107591;1251;97851;-60
2023/08/07 07:41:50;;;;;;;3.10;0.20;;;;;;;22.11;54.12;99943.70;107596;1254;96896;-60
2023/08/07 07:44:19;;;;;;;0.60;0.20;;;;;;;22.17;54.91;99941.06;107557;1251;112196;-60
2023/08/07 07:46:47;;;;;;;4.90;0.30;;;;;;;22.27;54.39;99944.06;107559;1251;110467;-61
2023/08/07 07:49:16;;;;;;;6.00;0.20;;;;;;;22.37;54.00;99954.79;107569;1254;108179;-62
2023/08/07 07:51:46;;;;;;;0.60;0.30;;;;;;;22.49;53.62;99954.08;107504;1251;97892;-61
2023/08/07 07:54:14;;;;;;;0.60;0.50;;;;;;;22.57;53.29;99950.23;107609;1251;97500;-62
2023/08/07 07:56:43;;;;;;;3.40;0.50;;;;;;;22.64;52.44;99951.52;107568;1253;111147;-61
2023/08/07 07:59:12;;;;;;;0.50;0.20;;;;;;;22.74;51.86;99954.09;107584;1254;110020;-59
2023/08/07 08:01:41;;;;;;;2.90;0.20;;;;;;;22.78;51.04;99960.23;107553;1252;108611;-61
2023/08/07 08:04:12;;;;;;;2.20;0.50;;;;;;;22.85;51.24;99960.22;107603;1251;97798;-61
2023/08/07 08:06:40;;;;;;;3.50;0.20;;;;;;;22.99;51.64;99964.06;107555;1251;97769;-60
2023/08/07 08:09:09;;;;;;;3.70;0.70;;;;;;;23.08;50.40;99964.70;107581;1251;112420;-62
2023/08/07 08:11:38;;;;;;;2.00;0.30;;;;;;;23.12;48.98;99966.62;107502;1253;111127;-61
2023/08/07 08:14:07;;;;;;;1.90;0.50;;;;;;;23.17;48.32;99960.98;107581;1251;108255;-61
2023/08/07 08:16:35;;;;;;;0.50;0.30;;;;;;;23.23;48.33;99963.15;107541;1251;97800;-60
2023/08/07 08:19:03;;;;;;;0.80;0.30;;;;;;;23.31;47.83;99959.88;107481;1251;97711;-60
2023/08/07 08:21:35;;;;;;;2.20;0.40;;;;;;;23.39;47.86;99963.56;107570;1251;111269;-63
2023/08/07 08:24:07;;;;;;;0.20;0.10;;;;;;;23.55;47.30;99973.14;107558;1251;110181;-63
2023/08/07 08:26:35;;;;;;;1.40;0.40;;;;;;;23.70;46.36;99972.63;107606;1256;107983;-62
2023/08/07 08:29:06;;;;;;;4.70;0.40;;;;;;;23.80;45.67;99973.20;107528;1254;98444;-60
2023/08/07 08:31:35;;;;;;;1.10;0.80;;;;;;;23.97;45.77;99985.86;107598;1251;97963;-61
2023/08/07 08:34:07;;;;;;;1.20;0.40;;;;;;;24.08;44.88;99986.30;107527;1252;111493;-64
2023/08/07 08:36:35;;;;;;;0.60;0.30;;;;;;;24.13;44.29;99977.98;107527;1254;109608;-61
2023/08/07 08:39:03;;;;;;;0.50;0.50;;;;;;;24.19;44.58;99976.13;107580;1252;108355;-60
2023/08/07 08:41:33;;;;;;;1.60;0.40;;;;;;;24.16;44.76;99978.20;107530;1251;97826;-61
2023/08/07 08:44:03;;;;;;;0.90;0.50;;;;;;;24.15;44.11;99970.81;107577;1255;98323;-60
2023/08/07 08:46:33;;;;;;;3.00;0.30;;;;;;;24.12;43.96;99987.35;107661;1250;112326;-59
2023/08/07 08:49:04;;;;;;;2.10;0.40;;;;;;;24.06;43.67;99984.19;107495;1254;109489;-61
2023/08/07 08:51:34;;;;;;;1.70;0.30;;;;;;;24.02;43.59;99987.19;107554;1251;109822;-59
2023/08/07 08:54:03;;;;;;;9.00;0.20;;;;;;;24.09;43.24;99988.64;107610;1253;97806;-61
2023/08/07 08:56:32;;;;;;;0.30;0.20;;;;;;;24.23;42.86;99993.73;107647;1251;98311;-61
2023/08/07 08:59:01;;;;;;;0.90;0.10;;;;;;;24.54;43.25;99980.69;107570;1251;111557;-60
2023/08/07 09:01:31;;;;;;;1.70;0.20;;;;;;;24.92;42.08;99985.35;107630;1254;110971;-60
2023/08/07 09:04:00;;;;;;;0.60;0.10;;;;;;;25.32;41.68;99981.39;107600;1253;107569;-61
2023/08/07 09:06:31;;;;;;;1.80;0.50;;;;;;;25.65;40.93;99987.75;107592;1251;97803;-59
2023/08/07 09:09:00;;;;;;;0.70;0.20;;;;;;;25.83;40.29;99991.42;107580;1251;98398;-60
2023/08/07 09:11:30;;;;;;;1.30;0.40;;;;;;;25.79;39.53;99999.88;107642;1251;111711;-63
2023/08/07 09:14:01;;;;;;;4.10;1.50;;;;;;;25.67;39.33;100005.39;107564;1253;109414;-61
2023/08/07 09:16:30;;;;;;;0.70;0.70;;;;;;;25.61;39.65;100000.85;107589;1251;107524;-62
2023/08/07 09:18:59;;;;;;;4.00;0.80;;;;;;;25.80;39.86;100007.91;107570;1254;98492;-61
2023/08/07 09:21:30;;;;;;;0.70;0.10;;;;;;;26.01;39.11;100010.98;107569;1253;97826;-63
2023/08/07 09:23:59;;;;;;;0.20;0.20;;;;;;;26.37;38.35;100008.58;107535;1251;111075;-61
2023/08/07 09:26:27;;;;;;;0.70;0.20;;;;;;;26.74;38.42;100005.84;107643;1254;109862;-61
2023/08/07 09:28:58;;;;;;;0.40;0.30;;;;;;;27.18;37.81;100007.09;107531;1254;107616;-61
2023/08/07 09:31:27;;;;;;;0.40;0.10;;;;;;;27.67;37.31;100007.77;107521;1254;97710;-60
2023/08/07 09:34:02;;;;;;;3.60;0.10;;;;;;;28.24;36.00;100008.60;107565;1251;97941;-62
2023/08/07 09:36:31;;;;;;;1.90;0.20;;;;;;;28.65;34.77;100011.33;107599;1251;110946;-61
2023/08/07 09:39:03;;;;;;;7.50;0.60;;;;;;;28.90;33.74;100012.35;107613;1251;108342;-66
2023/08/07 09:41:32;;;;;;;1.10;0.20;;;;;;;28.77;34.09;100023.14;107617;1254;108741;-59
2023/08/07 09:44:08;;;;;;;0.60;0.10;;;;;;;28.47;34.25;100025.23;107585;1251;97815;-63
2023/08/07 09:46:44;;;;;;;0.40;0.20;;;;;;;27.98;34.83;100028.52;107327;1251;356195;-60
2023/08/07 09:49:12;;;;;;;1.20;0.60;;;;;;;27.65;35.68;100024.85;107588;1252;112178;-60
2023/08/07 09:51:47;;;;;;;0.20;0.10;;;;;;;27.59;36.50;100029.89;107561;1251;108867;-63
2023/08/07 09:54:16;;;;;;;0.10;0.10;;;;;;;27.39;36.49;100034.30;107543;1252;108626;-60
2023/08/07 09:56:47;;;;;;;1.60;0.50;;;;;;;27.20;37.09;100037.47;107522;1251;97818;-61
2023/08/07 09:59:16;;;;;;;0.50;0.10;;;;;;;27.29;37.15;100038.58;107602;1251;98531;-61
2023/08/07 10:01:45;;;;;;;0.20;0.20;;;;;;;27.35;36.97;100039.50;107561;1251;111653;-61
2023/08/07 10:04:15;;;;;;;0.90;0.20;;;;;;;27.41;36.18;100047.34;107520;1251;110004;-62
2023/08/07 10:06:45;;;;;;;1.50;0.10;;;;;;;27.31;35.52;100053.77;107583;1251;106944;-59
2023/08/07 10:09:14;;;;;;;0.60;0.10;;;;;;;27.46;35.91;100055.13;107561;1251;98529;-62
2023/08/07 10:11:42;;;;;;;0.50;0.10;;;;;;;27.60;35.44;100050.56;107580;1255;97825;-60
2023/08/07 10:14:13;;;;;;;0.70;0.10;;;;;;;27.82;34.42;100050.28;107595;1251;111643;-61
2023/08/07 10:16:42;;;;;;;1.10;0.20;;;;;;;28.89;33.63;100058.27;107567;1250;109903;-62
2023/08/07 10:19:12;;;;;;;2.90;0.10;;;;;;;29.72;31.22;100067.23;107610;1256;107619;-62
2023/08/07 10:21:40;;;;;;;7.30;0.30;;;;;;;30.02;31.27;100058.77;107540;1253;97822;-61
2023/08/07 10:24:10;;;;;;;0.00;0.00;;;;;;;30.31;31.52;100064.92;107608;1251;97682;-62
2023/08/07 10:26:43;;;;;;;0.00;0.00;;;;;;;30.24;31.37;100068.34;107576;1253;109870;-62
2023/08/07 10:29:16;;;;;;;4.10;0.10;;;;;;;29.70;31.08;100069.63;107636;1251;109770;-61
2023/08/07 10:31:45;;;;;;;0.10;0.00;;;;;;;29.04;31.54;100073.41;107584;1253;107677;-62
2023/08/07 10:34:14;;;;;;;0.20;0.20;;;;;;;28.74;32.27;100072.17;107590;1254;98576;-61
2023/08/07 10:36:42;;;;;;;2.30;0.10;;;;;;;28.87;33.10;100073.70;107635;1254;98404;-62
2023/08/07 10:39:12;;;;;;;1.30;0.10;;;;;;;29.24;32.82;100069.92;107603;1251;110886;-61
2023/08/07 10:41:46;;;;;;;1.00;0.10;;;;;;;30.00;31.93;100068.81;107592;1251;110060;-62
2023/08/07 10:44:22;;;;;;;1.80;0.20;;;;;;;30.39;30.99;100067.47;107558;1254;107705;-61
2023/08/07 10:46:56;;;;;;;0.70;0.20;;;;;;;30.00;30.76;100080.70;107558;1251;97830;-62
2023/08/07 10:49:33;;;;;;;0.10;0.00;;;;;;;29.64;31.07;100083.95;107578;1252;97959;-63
2023/08/07 10:52:14;;;;;;;0.20;0.10;;;;;;;29.26;31.08;100089.64;107583;1253;111079;-63
2023/08/07 10:54:49;;;;;;;1.10;0.20;;;;;;;28.96;31.74;100085.70;107546;1254;109888;-62
2023/08/07 10:57:19;;;;;;;2.20;0.10;;;;;;;28.72;32.73;100080.70;107606;1251;108583;-61
2023/08/07 10:59:51;;;;;;;2.60;0.20;;;;;;;28.75;33.23;100086.14;107562;1253;97824;-61
2023/08/07 11:02:26;;;;;;;3.30;0.10;;;;;;;28.77;32.76;100095.82;107545;1252;97797;-61
2023/08/07 11:04:56;;;;;;;0.10;0.10;;;;;;;28.67;32.71;100097.89;107639;1251;111840;-60
2023/08/07 11:07:29;;;;;;;3.80;0.30;;;;;;;28.51;33.07;100096.23;107603;1254;109014;-63
2023/08/07 11:09:59;;;;;;;1.30;1.00;;;;;;;28.48;33.36;100099.27;107570;1254;106901;-61
2023/08/07 11:12:28;;;;;;;1.80;0.70;;;;;;;28.24;33.29;100103.84;107576;1251;97786;-61
2023/08/07 11:14:57;;;;;;;0.70;0.40;;;;;;;28.24;33.68;100100.52;107645;1251;98337;-60
2023/08/07 11:17:26;;;;;;;0.60;0.10;;;;;;;28.89;33.32;100106.52;107541;1254;112001;-60
2023/08/07 11:19:55;;;;;;;6.20;0.40;;;;;;;29.14;32.83;100107.52;107633;1251;108481;-62
2023/08/07 11:22:24;;;;;;;0.20;0.20;;;;;;;29.17;32.50;100111.07;107629;1251;108332;-60
2023/08/07 11:24:53;;;;;;;6.70;0.20;;;;;;;29.07;32.18;100119.99;107581;1252;97810;-60
2023/08/07 11:27:22;;;;;;;0.70;0.10;;;;;;;28.96;32.57;100116.16;107572;1255;97701;-59
2023/08/07 11:29:51;;;;;;;0.10;0.10;;;;;;;29.03;32.11;100123.87;107591;1253;112372;-60
2023/08/07 11:32:21;;;;;;;0.40;0.20;;;;;;;28.86;32.01;100125.23;107594;1251;109814;-60